Brisbane, North Dakota
Current Conditions -  °F | °C
As of 2:15 AM on Sunday 21 Dec 2014 (Local Time) from KD57 Reporting Station
Broken Clouds Broken Clouds  
Wind Chill: 11°   Ceiling: 11000
Heat Index: 18°   Visibility: 10mi
Dew Point: 16°   Wind: 5mph
Humidity: 93%   Direction: 130°SE
Pressure: 29.68"   Gusts: NA
Location:  46.3453°N, 101.479°W
Report Text: KD57 210915Z AUTO 13004KT 10SM BKN110 M08/M09 A2968 RMK AO2 TSNO
Loading
Personal Weather Stations






























Interactive Weather Map New forecast layout! Learn more

10-Day Weather Forecast

Advertisements
Track Severe Weather on mobile